Time;durP1;ratioP1;P1;durP2;ratioP2;P2;SDS_P1;SDS_P2;PMS_P1;PMS_P2;Temp;Humidity;BMP_temperature;BMP_pressure;BME280_temperature;BME280_humidity;BME280_pressure;Samples;Min_cycle;Max_cycle;Signal;HPM_P1;HPM_P2
2022/04/14 00:05:08;;;;;;;1999.90;999.90;;;;;;;13.25;61.37;101212.88;15657758;28;20056;-60
2022/04/14 00:12:42;;;;;;;1999.90;999.90;;;;;;;13.12;61.02;101205.47;15636144;28;20136;-58
2022/04/14 00:20:15;;;;;;;1999.90;999.90;;;;;;;13.09;61.54;101200.56;15658665;28;20045;-59
2022/04/14 00:27:47;;;;;;;1999.90;999.90;;;;;;;13.03;61.93;101209.53;15645646;28;20109;-61
2022/04/14 00:35:21;;;;;;;1999.90;999.90;;;;;;;12.96;61.91;101208.06;15647951;28;20049;-62
2022/04/14 00:42:53;;;;;;;;;;;;;;;12.93;61.49;101205.94;15638282;28;20426;-58
2022/04/14 00:50:27;;;;;;;1999.90;999.90;;;;;;;12.73;62.04;101208.66;15606591;28;19921;-61
2022/04/14 00:57:59;;;;;;;1999.90;999.90;;;;;;;12.57;61.99;101209.19;15623790;28;20057;-59
2022/04/14 01:05:34;;;;;;;1999.90;999.90;;;;;;;12.45;62.69;101202.66;15632986;28;20043;-59
2022/04/14 01:13:06;;;;;;;1999.90;999.90;;;;;;;12.32;63.21;101216.53;15616610;28;20076;-58
2022/04/14 01:20:42;;;;;;;1999.90;999.90;;;;;;;12.36;63.28;101208.28;15621123;28;20133;-59
2022/04/14 01:28:15;;;;;;;1999.90;999.90;;;;;;;12.23;63.90;101206.50;15629484;28;20037;-61
2022/04/14 01:35:47;;;;;;;1999.90;999.90;;;;;;;12.09;64.04;101206.72;15617665;28;20052;-60
2022/04/14 01:43:21;;;;;;;1999.90;999.90;;;;;;;11.97;64.25;101217.72;15627212;28;20053;-57
2022/04/14 01:50:53;;;;;;;1999.90;999.90;;;;;;;11.90;64.22;101221.03;15639101;28;20042;-58
2022/04/14 01:58:27;;;;;;;1999.90;999.90;;;;;;;11.83;65.02;101215.94;15621328;28;20093;-59
2022/04/14 02:05:59;;;;;;;;;;;;;;;11.89;65.16;101225.00;15604807;28;20151;-61
2022/04/14 02:13:33;;;;;;;1999.90;999.90;;;;;;;11.73;65.34;101219.03;15631334;28;19955;-59
2022/04/14 02:21:05;;;;;;;1999.90;999.90;;;;;;;11.73;65.42;101224.63;15637337;28;20398;-62
2022/04/14 02:28:42;;;;;;;1999.90;999.90;;;;;;;11.73;65.26;101241.38;15642021;28;20119;-59
2022/04/14 02:36:14;;;;;;;1999.90;999.90;;;;;;;11.74;65.74;101236.63;15625209;28;20104;-59
2022/04/14 02:43:47;;;;;;;1999.90;999.90;;;;;;;11.84;64.69;101250.31;15621585;28;20145;-59
2022/04/14 02:51:20;;;;;;;1999.90;999.90;;;;;;;11.82;64.48;101247.84;15642086;28;20049;-59
2022/04/14 02:58:55;;;;;;;1999.90;999.90;;;;;;;11.72;64.94;101252.91;15657773;28;20037;-59
2022/04/14 03:06:27;;;;;;;1999.90;999.90;;;;;;;11.63;65.57;101264.06;15653812;28;20108;-58
2022/04/14 03:14:02;;;;;;;1999.90;999.90;;;;;;;11.66;65.85;101270.97;15612872;28;20450;-59
2022/04/14 03:21:34;;;;;;;1999.90;999.90;;;;;;;11.55;65.62;101262.91;15596184;28;20042;-60
2022/04/14 03:29:09;;;;;;;1999.90;999.90;;;;;;;11.68;63.78;101277.09;15604641;28;20474;-58
2022/04/14 03:36:41;;;;;;;1999.90;999.90;;;;;;;11.80;64.41;101266.09;15593250;28;20085;-59
2022/04/14 03:44:14;;;;;;;1999.90;999.90;;;;;;;12.02;64.77;101273.50;15641757;28;20088;-62
2022/04/14 03:51:47;;;;;;;1999.90;999.90;;;;;;;12.08;65.41;101261.81;15630946;28;20160;-54
2022/04/14 03:59:20;;;;;;;1999.90;999.90;;;;;;;12.36;66.08;101269.84;15612493;28;20124;-59
2022/04/14 04:06:52;;;;;;;;;;;;;;;12.62;66.26;101281.84;15629624;28;20124;-59
2022/04/14 04:14:26;;;;;;;1999.90;999.90;;;;;;;12.75;66.45;101288.38;15616459;28;20026;-59
2022/04/14 04:21:58;;;;;;;1999.90;999.90;;;;;;;12.89;65.79;101313.38;15645970;28;20128;-59
2022/04/14 04:29:32;;;;;;;1999.90;999.90;;;;;;;13.05;65.65;101325.69;15606600;28;20171;-59
2022/04/14 04:37:04;;;;;;;;;;;;;;;13.30;65.34;101335.16;15659085;28;20120;-59
2022/04/14 04:44:39;;;;;;;1999.90;999.90;;;;;;;13.47;64.66;101337.91;15665759;28;19966;-57
2022/04/14 04:52:11;;;;;;;1999.90;999.90;;;;;;;13.44;65.44;101338.59;15639163;28;20044;-60
2022/04/14 04:59:47;;;;;;;1999.90;999.90;;;;;;;13.40;65.82;101317.16;15648214;28;20057;-61
2022/04/14 05:07:19;;;;;;;;;;;;;;;13.76;65.01;101331.47;15645136;28;20046;-60
2022/04/14 05:14:52;;;;;;;1999.90;999.90;;;;;;;13.69;64.94;101333.97;15612263;28;20282;-60
2022/04/14 05:22:25;;;;;;;1999.90;999.90;;;;;;;13.94;64.64;101336.94;15613335;28;20077;-61
2022/04/14 05:29:59;;;;;;;1999.90;999.90;;;;;;;14.22;64.04;101340.84;15612848;28;20057;-61
2022/04/14 05:37:31;;;;;;;1999.90;999.90;;;;;;;14.36;63.51;101343.38;15611289;28;20055;-61
2022/04/14 05:45:05;;;;;;;1999.90;999.90;;;;;;;14.66;63.16;101342.13;15594518;28;20443;-59
2022/04/14 05:52:38;;;;;;;1999.90;999.90;;;;;;;14.99;62.18;101342.09;15585428;28;20371;-60
2022/04/14 06:00:14;;;;;;;1999.90;999.90;;;;;;;15.64;59.83;101364.84;15612574;28;20064;-59
2022/04/14 06:07:46;;;;;;;1999.90;999.90;;;;;;;15.72;60.68;101372.31;15605345;28;20065;-61
2022/04/14 06:15:20;;;;;;;1999.90;999.90;;;;;;;16.32;58.17;101361.31;15587592;28;20061;-61
2022/04/14 06:22:52;;;;;;;1999.90;999.90;;;;;;;16.45;58.51;101368.56;15592940;28;20059;-59
2022/04/14 06:30:26;;;;;;;1999.90;999.90;;;;;;;17.35;56.07;101366.25;15590620;28;20042;-60
2022/04/14 07:33:06;;;;;;;1999.90;999.90;;;;;;;21.74;46.08;101387.63;15600317;28;20088;-61
2022/04/14 07:40:38;;;;;;;1999.90;999.90;;;;;;;21.65;45.14;101386.31;15600022;28;20403;-61
2022/04/14 07:48:12;;;;;;;1999.90;999.90;;;;;;;21.40;46.58;101386.13;15610924;28;20402;-61
2022/04/14 07:55:44;;;;;;;1999.90;999.90;;;;;;;22.05;44.66;101388.25;15605773;28;20060;-60
2022/04/14 08:03:18;;;;;;;1999.90;999.90;;;;;;;22.30;44.13;101400.66;15636096;28;20049;-60
2022/04/14 08:10:51;;;;;;;1999.90;999.90;;;;;;;22.57;44.06;101406.06;15598930;28;20050;-59
2022/04/14 08:18:24;;;;;;;1999.90;999.90;;;;;;;22.76;43.57;101419.97;15617012;28;20054;-60
2022/04/14 08:25:57;;;;;;;1999.90;999.90;;;;;;;22.94;43.41;101431.47;15599962;28;20056;-59
2022/04/14 08:33:30;;;;;;;1999.90;999.90;;;;;;;22.26;45.28;101445.28;15597843;28;20478;-60
2022/04/14 08:41:04;;;;;;;1999.90;999.90;;;;;;;21.71;47.90;101450.09;15615169;28;20413;-59
2022/04/14 08:48:40;;;;;;;1999.90;999.90;;;;;;;22.56;45.57;101447.09;15573259;28;20521;-60
2022/04/14 08:56:13;;;;;;;1999.90;999.90;;;;;;;22.61;46.32;101447.50;15606165;28;20108;-59
2022/04/14 09:03:47;;;;;;;1999.90;999.90;;;;;;;21.75;48.15;101463.09;15614536;28;20056;-60
2022/04/14 09:11:20;;;;;;;1999.90;999.90;;;;;;;22.51;46.60;101456.00;15607351;28;20078;-60
2022/04/14 09:18:54;;;;;;;1999.90;999.90;;;;;;;24.03;44.83;101449.97;15645624;28;20045;-59
2022/04/14 09:26:26;;;;;;;1999.90;999.90;;;;;;;23.85;44.45;101458.50;15633781;28;20042;-58
2022/04/14 09:33:59;;;;;;;1999.90;999.90;;;;;;;24.05;44.18;101455.25;15612376;28;20137;-56
2022/04/14 09:41:34;;;;;;;1999.90;999.90;;;;;;;24.29;43.84;101467.88;15594414;28;20732;-59
2022/04/14 09:49:10;;;;;;;1999.90;999.90;;;;;;;23.58;44.75;101462.94;15654952;28;20422;-60
2022/04/14 09:56:46;;;;;;;1999.90;999.90;;;;;;;23.11;46.22;101458.34;15655114;28;20083;-60
2022/04/14 10:04:34;;;;;;;1999.90;999.90;;;;;;;22.07;48.83;101457.72;15602264;28;20041;-60
2022/04/14 10:12:33;;;;;;;1999.90;999.90;;;;;;;22.14;48.77;101466.31;15575988;28;20589;-60
2022/04/14 10:20:14;;;;;;;1999.90;999.90;;;;;;;21.51;51.87;101458.81;15575333;28;20042;-61
2022/04/14 10:27:47;;;;;;;1999.90;999.90;;;;;;;21.74;50.58;101469.19;15605342;28;20480;-60
2022/04/14 10:35:29;;;;;;;1999.90;999.90;;;;;;;21.79;50.12;101460.31;15577342;28;20096;-59
2022/04/14 10:43:08;;;;;;;1999.90;999.90;;;;;;;21.23;52.41;101464.97;15623223;22;20052;-66
2022/04/14 10:50:41;;;;;;;1999.90;999.90;;;;;;;22.84;48.01;101470.03;15731729;28;20409;-64
2022/04/14 10:58:54;;;;;;;1999.90;999.90;;;;;;;22.45;49.12;101486.84;15737056;28;20106;-65
2022/04/14 11:06:54;;;;;;;1999.90;999.90;;;;;;;21.80;50.23;101494.00;15677124;28;20188;-64
2022/04/14 11:14:35;;;;;;;1999.90;999.90;;;;;;;21.00;51.08;101498.34;15654521;28;20055;-63
2022/04/14 11:22:09;;;;;;;1999.90;999.90;;;;;;;21.13;51.04;101508.22;15674124;28;20099;-64
2022/04/14 11:29:43;;;;;;;1999.90;999.90;;;;;;;20.84;52.43;101503.38;15674752;28;20457;-64
2022/04/14 11:37:45;;;;;;;1999.90;999.90;;;;;;;20.77;54.03;101506.13;15677864;28;20041;-64
2022/04/14 11:45:21;;;;;;;1999.90;999.90;;;;;;;19.66;55.78;101511.97;15674566;28;20064;-65
2022/04/14 11:52:57;;;;;;;1999.90;999.90;;;;;;;20.22;54.90;101505.66;15675647;28;20627;-63
2022/04/14 12:00:29;;;;;;;1999.90;999.90;;;;;;;20.19;54.81;101502.41;15674895;28;20049;-65
2022/04/14 12:08:07;;;;;;;1999.90;999.90;;;;;;;19.81;55.21;101511.88;15667603;28;20052;-65
2022/04/14 12:15:40;;;;;;;1999.90;999.90;;;;;;;18.99;57.45;101526.38;15671335;28;20118;-64
2022/04/14 12:23:13;;;;;;;1999.90;999.90;;;;;;;18.70;57.93;101524.91;15681929;28;20485;-64
2022/04/14 12:30:45;;;;;;;1999.90;999.90;;;;;;;18.37;59.09;101528.97;15678549;28;20568;-64
2022/04/14 12:38:22;;;;;;;1999.90;999.90;;;;;;;18.28;59.90;101538.81;15671844;28;20128;-63
2022/04/14 12:45:54;;;;;;;1999.90;999.90;;;;;;;17.93;59.58;101538.75;15682539;28;20053;-65
2022/04/14 12:53:28;;;;;;;1999.90;999.90;;;;;;;17.66;60.78;101532.75;15681965;28;20317;-63
2022/04/14 13:01:08;;;;;;;1552.28;796.85;;;;;;;17.54;61.71;101547.75;15681866;28;20095;-65
2022/04/14 13:08:42;;;;;;;557.72;505.70;;;;;;;17.18;65.57;101559.19;15658885;28;20048;-65
2022/04/14 13:16:14;;;;;;;228.55;212.02;;;;;;;16.97;68.90;101565.81;15649920;28;20579;-64
2022/04/14 13:23:48;;;;;;;140.80;130.13;;;;;;;16.82;70.78;101548.84;15679291;28;20179;-63
2022/04/14 13:31:20;;;;;;;134.80;126.03;;;;;;;16.69;72.58;101534.78;15680557;28;20060;-64
2022/04/14 13:38:54;;;;;;;90.18;83.72;;;;;;;16.51;71.28;101512.81;15677463;28;20472;-65
2022/04/14 13:46:28;;;;;;;94.32;88.07;;;;;;;16.60;72.02;101541.69;15666688;28;20037;-63
2022/04/14 13:54:03;;;;;;;100.43;93.35;;;;;;;16.59;72.40;101515.50;15682536;28;20115;-64
2022/04/14 14:01:35;;;;;;;102.97;95.90;;;;;;;16.52;73.71;101540.63;15684813;28;20051;-66
2022/04/14 14:09:09;;;;;;;116.82;109.13;;;;;;;16.41;73.83;101588.16;15685997;28;20469;-65
2022/04/14 14:16:41;;;;;;;265.38;246.25;;;;;;;15.88;78.21;101538.50;15686500;28;20041;-65
2022/04/14 14:24:15;;;;;;;362.40;337.63;;;;;;;16.56;75.95;101538.72;15693498;28;20071;-65
2022/04/14 14:31:47;;;;;;;198.88;185.35;;;;;;;16.59;74.71;101546.50;15681202;28;20119;-65
2022/04/14 14:39:22;;;;;;;108.10;100.70;;;;;;;16.76;73.91;101536.16;15680037;28;20060;-66
2022/04/14 14:46:55;;;;;;;120.15;111.55;;;;;;;16.80;74.66;101542.72;15678548;28;20045;-64
2022/04/14 14:54:28;;;;;;;119.50;111.87;;;;;;;16.88;73.28;101541.75;15676456;28;20040;-65
2022/04/14 15:02:01;;;;;;;124.72;116.45;;;;;;;17.07;71.93;101535.47;15669375;28;20040;-65
2022/04/14 15:09:35;;;;;;;128.35;119.80;;;;;;;17.10;71.21;101521.50;15675967;28;20068;-61
2022/04/14 15:17:07;;;;;;;132.48;123.45;;;;;;;17.00;72.03;101527.66;15642939;28;20045;-65
2022/04/14 15:24:41;;;;;;;127.80;118.95;;;;;;;17.14;72.15;101516.78;15687162;28;20121;-65
2022/04/14 15:32:13;;;;;;;127.90;118.95;;;;;;;16.77;71.48;101527.34;15676279;28;20128;-65
2022/04/14 15:39:47;;;;;;;125.57;116.72;;;;;;;16.87;72.35;101526.84;15675450;28;20047;-65
2022/04/14 15:47:20;;;;;;;99.90;92.85;;;;;;;16.79;72.72;101521.38;15639213;28;20079;-65
2022/04/14 15:54:55;;;;;;;122.93;114.97;;;;;;;16.93;72.04;101507.69;15671970;28;20453;-65
2022/04/14 16:02:27;;;;;;;120.70;112.47;;;;;;;16.81;72.76;101494.47;15676206;28;20479;-64
2022/04/14 16:17:52;;;;;;;139.13;129.88;;;;;;;16.77;70.95;101482.25;15682250;28;20048;-65
2022/04/14 16:25:25;;;;;;;;;;;;;;;17.00;69.22;101491.81;15686609;28;20045;-64
2022/04/14 16:32:58;;;;;;;150.63;140.63;;;;;;;17.05;70.51;101509.66;15689856;28;19975;-64
2022/04/14 16:40:32;;;;;;;153.00;142.32;;;;;;;17.04;72.14;101517.28;15691363;28;20620;-64
2022/04/14 16:48:05;;;;;;;172.55;161.32;;;;;;;17.39;69.28;101519.47;15688982;28;20052;-62
2022/04/14 16:55:39;;;;;;;170.32;158.32;;;;;;;17.00;68.97;101522.84;15690400;28;20493;-63
2022/04/14 17:03:11;;;;;;;160.48;148.73;;;;;;;16.71;70.78;101538.03;15699815;28;20461;-65
2022/04/14 17:10:45;;;;;;;155.13;144.77;;;;;;;16.59;71.06;101526.78;15688955;28;20068;-64
2022/04/14 17:18:17;;;;;;;141.55;131.25;;;;;;;16.28;72.27;101530.19;15689043;28;20401;-66
2022/04/14 17:25:51;;;;;;;138.63;129.38;;;;;;;16.08;72.60;101536.75;15669651;28;20532;-67
2022/04/14 17:33:23;;;;;;;137.60;128.30;;;;;;;15.86;72.88;101536.03;15670773;28;20088;-66
2022/04/14 17:40:58;;;;;;;118.15;109.95;;;;;;;15.75;73.59;101542.47;15684099;28;20053;-66
2022/04/14 17:48:32;;;;;;;102.53;94.82;;;;;;;15.55;74.79;101522.44;15686031;28;20100;-65
2022/04/14 17:56:06;;;;;;;121.95;113.63;;;;;;;15.78;74.20;101555.81;15676582;28;20505;-64
2022/04/14 18:03:39;;;;;;;135.00;125.78;;;;;;;15.82;74.38;101568.84;15662630;28;20514;-64
2022/04/14 18:11:12;;;;;;;138.23;128.55;;;;;;;15.69;75.21;101569.16;15681497;28;20087;-65
2022/04/14 18:18:44;;;;;;;118.15;109.70;;;;;;;15.62;76.14;101575.34;15681632;28;20088;-63
2022/04/14 18:26:18;;;;;;;119.03;110.80;;;;;;;15.79;75.39;101575.16;15681337;28;20091;-64
2022/04/14 18:33:50;;;;;;;;;;;;;;;15.81;75.78;101578.44;15678720;28;20206;-65
2022/04/14 18:41:24;;;;;;;168.10;156.40;;;;;;;15.68;76.71;101588.03;15678638;28;19951;-67
2022/04/14 18:48:56;;;;;;;166.10;154.25;;;;;;;15.81;76.43;101589.72;15659472;28;20049;-63
2022/04/14 18:56:29;;;;;;;191.93;178.60;;;;;;;15.89;76.41;101607.69;15661052;28;20045;-62
2022/04/14 19:04:02;;;;;;;149.98;139.35;;;;;;;15.84;77.37;101616.34;15670642;28;20044;-60
2022/04/14 19:11:35;;;;;;;191.23;177.73;;;;;;;15.55;78.48;101620.09;15691079;28;20037;-59
2022/04/14 19:19:08;;;;;;;180.70;168.52;;;;;;;15.57;78.11;101600.84;15675781;28;20107;-63
2022/04/14 19:26:41;;;;;;;174.23;162.70;;;;;;;15.44;79.05;101590.75;15665656;28;20053;-62
2022/04/14 19:34:14;;;;;;;197.38;183.52;;;;;;;15.05;80.27;101566.75;15675999;28;20482;-65
2022/04/14 19:41:48;;;;;;;312.50;288.95;;;;;;;15.31;79.63;101582.22;15671708;28;20029;-64
2022/04/14 19:49:20;;;;;;;;;;;;;;;15.39;79.49;101590.94;15678016;28;20041;-64
2022/04/14 19:56:54;;;;;;;259.55;241.07;;;;;;;14.96;80.80;101575.25;15690534;28;19927;-63
2022/04/14 20:04:26;;;;;;;245.80;228.20;;;;;;;14.80;81.22;101577.84;15687044;28;20076;-63
2022/04/14 20:12:01;;;;;;;255.80;237.55;;;;;;;14.71;82.12;101575.09;15682375;28;20073;-63
2022/04/14 20:19:33;;;;;;;326.23;301.17;;;;;;;14.72;82.77;101578.72;15678238;28;20041;-64
2022/04/14 20:27:07;;;;;;;327.70;304.73;;;;;;;14.79;82.53;101579.00;15676983;28;20065;-66
2022/04/14 20:34:39;;;;;;;311.35;289.20;;;;;;;14.78;82.23;101566.09;15668111;28;20049;-66
2022/04/14 20:42:12;;;;;;;296.50;275.50;;;;;;;14.78;82.19;101562.47;15657676;28;20504;-66
2022/04/14 20:49:44;;;;;;;;;;;;;;;14.89;81.25;101561.72;15694926;28;20080;-64
2022/04/14 20:57:18;;;;;;;163.45;151.93;;;;;;;14.75;81.56;101571.59;15676453;28;19921;-65
2022/04/14 21:04:51;;;;;;;122.22;113.82;;;;;;;14.72;81.13;101587.16;15659998;28;20140;-65
2022/04/14 21:12:24;;;;;;;228.10;211.18;;;;;;;14.55;82.17;101574.03;15685293;28;20068;-65
2022/04/14 21:19:57;;;;;;;241.90;225.18;;;;;;;14.39;82.72;101570.13;15684365;28;20049;-65
2022/04/14 21:27:30;;;;;;;211.60;197.13;;;;;;;14.38;81.94;101565.66;15668086;28;20064;-65
2022/04/14 21:35:05;;;;;;;242.80;225.23;;;;;;;14.35;82.29;101564.34;15683418;28;20053;-65
2022/04/14 21:42:38;;;;;;;243.15;226.45;;;;;;;14.34;82.02;101573.13;15681686;28;20073;-65
2022/04/14 21:50:10;;;;;;;208.27;193.57;;;;;;;14.31;82.06;101560.59;15661539;28;20034;-66
2022/04/14 21:57:44;;;;;;;220.65;205.52;;;;;;;14.30;81.83;101560.94;15679580;28;20155;-66
2022/04/14 22:05:16;;;;;;;;;;;;;;;14.25;82.10;101558.31;15683116;28;20045;-66
2022/04/14 22:12:50;;;;;;;207.23;192.15;;;;;;;14.22;82.17;101561.78;15666183;28;19974;-66
2022/04/14 22:20:22;;;;;;;;;;;;;;;14.21;82.37;101565.75;15683908;28;20049;-64
2022/04/14 22:27:55;;;;;;;196.05;181.63;;;;;;;14.02;82.64;101566.16;15682364;28;20369;-65
2022/04/14 22:35:30;;;;;;;;;;;;;;;14.00;83.09;101571.28;15688000;28;20408;-65
2022/04/14 22:43:04;;;;;;;202.20;186.18;;;;;;;13.81;83.99;101572.50;15681767;28;20282;-65
2022/04/14 22:50:36;;;;;;;302.45;280.05;;;;;;;13.85;84.63;101587.50;15648446;28;20053;-64
2022/04/14 22:58:10;;;;;;;355.02;328.67;;;;;;;13.86;85.30;101591.16;15665520;28;20670;-64
2022/04/14 23:05:42;;;;;;;;;;;;;;;13.83;85.65;101575.78;15680845;28;20053;-62
2022/04/14 23:13:16;;;;;;;272.65;252.60;;;;;;;13.71;86.08;101572.84;15678681;28;19927;-61
2022/04/14 23:20:48;;;;;;;;;;;;;;;13.84;84.90;101573.81;15680221;28;20048;-63
2022/04/14 23:28:23;;;;;;;259.83;240.27;;;;;;;13.94;84.73;101576.25;15676597;28;20015;-62
2022/04/14 23:35:56;;;;;;;254.55;235.77;;;;;;;14.00;84.17;101582.50;15656936;28;20411;-63
2022/04/14 23:43:30;;;;;;;277.53;256.03;;;;;;;13.81;84.61;101578.09;15678492;28;20127;-65
2022/04/14 23:51:02;;;;;;;251.15;232.20;;;;;;;13.90;83.82;101580.91;15678521;28;20052;-61
2022/04/14 23:58:35;;;;;;;246.82;228.50;;;;;;;13.65;83.94;101582.63;15659875;28;20040;-64
